sensor_id;sensor_type;location;lat;lon;timestamp;pressure;altitude;pressure_sealevel;temperature
22828;BMP180;11580;52.562;13.418;2023-03-12T00:00:21;99955.00;;;5.00
22828;BMP180;11580;52.562;13.418;2023-03-12T00:02:48;99957.00;;;5.00
22828;BMP180;11580;52.562;13.418;2023-03-12T00:05:15;99965.00;;;5.00
22828;BMP180;11580;52.562;13.418;2023-03-12T00:07:44;99963.00;;;5.00
22828;BMP180;11580;52.562;13.418;2023-03-12T00:10:11;99965.00;;;5.00
22828;BMP180;11580;52.562;13.418;2023-03-12T00:12:39;99954.00;;;5.00
22828;BMP180;11580;52.562;13.418;2023-03-12T00:15:08;99948.00;;;5.00
22828;BMP180;11580;52.562;13.418;2023-03-12T00:17:35;99953.00;;;5.00
22828;BMP180;11580;52.562;13.418;2023-03-12T00:20:04;99954.00;;;5.00
22828;BMP180;11580;52.562;13.418;2023-03-12T00:22:32;99954.00;;;5.00
22828;BMP180;11580;52.562;13.418;2023-03-12T00:25:01;99948.00;;;5.00
22828;BMP180;11580;52.562;13.418;2023-03-12T00:27:28;99954.00;;;5.00
22828;BMP180;11580;52.562;13.418;2023-03-12T00:29:55;99957.00;;;5.00
22828;BMP180;11580;52.562;13.418;2023-03-12T00:32:23;99947.00;;;5.00
22828;BMP180;11580;52.562;13.418;2023-03-12T00:34:51;99967.00;;;5.00
22828;BMP180;11580;52.562;13.418;2023-03-12T00:37:19;99942.00;;;5.00
22828;BMP180;11580;52.562;13.418;2023-03-12T00:39:47;99966.00;;;5.00
22828;BMP180;11580;52.562;13.418;2023-03-12T00:42:16;99965.00;;;5.00
22828;BMP180;11580;52.562;13.418;2023-03-12T00:44:43;99969.00;;;5.00
22828;BMP180;11580;52.562;13.418;2023-03-12T00:47:12;99971.00;;;5.10
22828;BMP180;11580;52.562;13.418;2023-03-12T00:49:39;99977.00;;;5.10
22828;BMP180;11580;52.562;13.418;2023-03-12T00:52:07;99984.00;;;5.10
22828;BMP180;11580;52.562;13.418;2023-03-12T00:54:34;99986.00;;;5.20
22828;BMP180;11580;52.562;13.418;2023-03-12T00:57:01;99976.00;;;5.20
22828;BMP180;11580;52.562;13.418;2023-03-12T00:59:30;99982.00;;;5.30
22828;BMP180;11580;52.562;13.418;2023-03-12T01:01:57;99981.00;;;5.40
22828;BMP180;11580;52.562;13.418;2023-03-12T01:04:24;99975.00;;;5.50
22828;BMP180;11580;52.562;13.418;2023-03-12T01:06:52;99994.00;;;5.60
22828;BMP180;11580;52.562;13.418;2023-03-12T01:09:20;99993.00;;;5.70
22828;BMP180;11580;52.562;13.418;2023-03-12T01:11:47;99996.00;;;5.70
22828;BMP180;11580;52.562;13.418;2023-03-12T01:14:15;100002.00;;;5.80
22828;BMP180;11580;52.562;13.418;2023-03-12T01:16:44;99997.00;;;5.80
22828;BMP180;11580;52.562;13.418;2023-03-12T01:19:12;99997.00;;;5.80
22828;BMP180;11580;52.562;13.418;2023-03-12T01:21:39;99996.00;;;5.80
22828;BMP180;11580;52.562;13.418;2023-03-12T01:24:07;100006.00;;;5.80
22828;BMP180;11580;52.562;13.418;2023-03-12T01:26:34;99999.00;;;5.80
22828;BMP180;11580;52.562;13.418;2023-03-12T01:29:01;99996.00;;;5.80
22828;BMP180;11580;52.562;13.418;2023-03-12T01:31:28;100005.00;;;5.70
22828;BMP180;11580;52.562;13.418;2023-03-12T01:33:57;100009.00;;;5.70
22828;BMP180;11580;52.562;13.418;2023-03-12T01:36:26;100017.00;;;5.70
22828;BMP180;11580;52.562;13.418;2023-03-12T01:38:57;100015.00;;;5.70
22828;BMP180;11580;52.562;13.418;2023-03-12T01:41:28;100007.00;;;5.80
22828;BMP180;11580;52.562;13.418;2023-03-12T01:43:58;100018.00;;;5.90
22828;BMP180;11580;52.562;13.418;2023-03-12T01:46:33;100009.00;;;5.90
22828;BMP180;11580;52.562;13.418;2023-03-12T01:49:10;100000.00;;;6.00
22828;BMP180;11580;52.562;13.418;2023-03-12T01:51:42;100021.00;;;6.10
22828;BMP180;11580;52.562;13.418;2023-03-12T01:54:15;100007.00;;;6.10
22828;BMP180;11580;52.562;13.418;2023-03-12T01:56:44;100022.00;;;6.20
22828;BMP180;11580;52.562;13.418;2023-03-12T01:59:17;100029.00;;;6.20
22828;BMP180;11580;52.562;13.418;2023-03-12T02:01:47;100034.00;;;6.20
22828;BMP180;11580;52.562;13.418;2023-03-12T02:04:21;100041.00;;;6.20
22828;BMP180;11580;52.562;13.418;2023-03-12T02:06:56;100043.00;;;6.30
22828;BMP180;11580;52.562;13.418;2023-03-12T02:09:26;100046.00;;;6.30
22828;BMP180;11580;52.562;13.418;2023-03-12T02:11:53;100050.00;;;6.40
22828;BMP180;11580;52.562;13.418;2023-03-12T02:14:20;100046.00;;;6.40
22828;BMP180;11580;52.562;13.418;2023-03-12T02:16:48;100045.00;;;6.40
22828;BMP180;11580;52.562;13.418;2023-03-12T02:19:24;100044.00;;;6.40
22828;BMP180;11580;52.562;13.418;2023-03-12T02:21:53;100050.00;;;6.40
22828;BMP180;11580;52.562;13.418;2023-03-12T02:24:29;100049.00;;;6.40
22828;BMP180;11580;52.562;13.418;2023-03-12T02:27:01;100049.00;;;6.30
22828;BMP180;11580;52.562;13.418;2023-03-12T02:29:32;100054.00;;;6.30
22828;BMP180;11580;52.562;13.418;2023-03-12T02:32:02;100051.00;;;6.30
22828;BMP180;11580;52.562;13.418;2023-03-12T02:34:31;100040.00;;;6.20
22828;BMP180;11580;52.562;13.418;2023-03-12T02:36:59;100056.00;;;6.20
22828;BMP180;11580;52.562;13.418;2023-03-12T02:39:26;100052.00;;;6.10
22828;BMP180;11580;52.562;13.418;2023-03-12T02:41:56;100058.00;;;6.00
22828;BMP180;11580;52.562;13.418;2023-03-12T02:44:28;100053.00;;;5.90
22828;BMP180;11580;52.562;13.418;2023-03-12T02:46:59;100063.00;;;5.90
22828;BMP180;11580;52.562;13.418;2023-03-12T02:49:31;100067.00;;;5.80
22828;BMP180;11580;52.562;13.418;2023-03-12T02:51:59;100074.00;;;5.70
22828;BMP180;11580;52.562;13.418;2023-03-12T02:54:28;100029.00;;;5.60
22828;BMP180;11580;52.562;13.418;2023-03-12T02:56:55;100073.00;;;5.50
22828;BMP180;11580;52.562;13.418;2023-03-12T02:59:26;100073.00;;;5.50
22828;BMP180;11580;52.562;13.418;2023-03-12T03:01:58;100074.00;;;5.40
22828;BMP180;11580;52.562;13.418;2023-03-12T03:04:27;100066.00;;;5.30
22828;BMP180;11580;52.562;13.418;2023-03-12T03:06:54;100074.00;;;5.20
22828;BMP180;11580;52.562;13.418;2023-03-12T03:09:23;100078.00;;;5.20
22828;BMP180;11580;52.562;13.418;2023-03-12T03:11:51;100078.00;;;5.10
22828;BMP180;11580;52.562;13.418;2023-03-12T03:14:19;100080.00;;;5.10
22828;BMP180;11580;52.562;13.418;2023-03-12T03:16:50;100091.00;;;5.00
22828;BMP180;11580;52.562;13.418;2023-03-12T03:19:19;100093.00;;;5.00
22828;BMP180;11580;52.562;13.418;2023-03-12T03:21:46;100083.00;;;4.90
22828;BMP180;11580;52.562;13.418;2023-03-12T03:24:14;100087.00;;;4.90
22828;BMP180;11580;52.562;13.418;2023-03-12T03:26:42;100097.00;;;4.80
22828;BMP180;11580;52.562;13.418;2023-03-12T03:29:10;100094.00;;;4.80
22828;BMP180;11580;52.562;13.418;2023-03-12T03:31:37;100090.00;;;4.70
22828;BMP180;11580;52.562;13.418;2023-03-12T03:34:05;100087.00;;;4.70
22828;BMP180;11580;52.562;13.418;2023-03-12T03:36:33;100103.00;;;4.70
22828;BMP180;11580;52.562;13.418;2023-03-12T03:39:08;100097.00;;;4.60
22828;BMP180;11580;52.562;13.418;2023-03-12T03:41:35;100093.00;;;4.60
22828;BMP180;11580;52.562;13.418;2023-03-12T03:44:02;100096.00;;;4.60
22828;BMP180;11580;52.562;13.418;2023-03-12T03:46:31;100101.00;;;4.60
22828;BMP180;11580;52.562;13.418;2023-03-12T03:49:05;100103.00;;;4.60
22828;BMP180;11580;52.562;13.418;2023-03-12T03:51:33;100104.00;;;4.50
22828;BMP180;11580;52.562;13.418;2023-03-12T03:54:05;100107.00;;;4.50
22828;BMP180;11580;52.562;13.418;2023-03-12T03:56:33;100109.00;;;4.50
22828;BMP180;11580;52.562;13.418;2023-03-12T03:59:02;100112.00;;;4.50
22828;BMP180;11580;52.562;13.418;2023-03-12T04:01:32;100118.00;;;4.40
22828;BMP180;11580;52.562;13.418;2023-03-12T04:04:00;100077.00;;;4.40
22828;BMP180;11580;52.562;13.418;2023-03-12T04:06:31;100113.00;;;4.40
22828;BMP180;11580;52.562;13.418;2023-03-12T04:08:58;100116.00;;;4.40
22828;BMP180;11580;52.562;13.418;2023-03-12T04:11:28;100127.00;;;4.30
22828;BMP180;11580;52.562;13.418;2023-03-12T04:13:56;100129.00;;;4.30
22828;BMP180;11580;52.562;13.418;2023-03-12T04:16:27;100130.00;;;4.30
22828;BMP180;11580;52.562;13.418;2023-03-12T04:18:54;100130.00;;;4.30
22828;BMP180;11580;52.562;13.418;2023-03-12T04:21:22;100126.00;;;4.30
22828;BMP180;11580;52.562;13.418;2023-03-12T04:23:52;100128.00;;;4.30
22828;BMP180;11580;52.562;13.418;2023-03-12T04:26:22;100123.00;;;4.20
22828;BMP180;11580;52.562;13.418;2023-03-12T04:28:50;100128.00;;;4.30
22828;BMP180;11580;52.562;13.418;2023-03-12T04:31:17;100125.00;;;4.20
22828;BMP180;11580;52.562;13.418;2023-03-12T04:33:49;100134.00;;;4.20
22828;BMP180;11580;52.562;13.418;2023-03-12T04:36:18;100129.00;;;4.20
22828;BMP180;11580;52.562;13.418;2023-03-12T04:38:48;100129.00;;;4.20
22828;BMP180;11580;52.562;13.418;2023-03-12T04:41:19;100138.00;;;4.20
22828;BMP180;11580;52.562;13.418;2023-03-12T04:44:01;100136.00;;;4.20
22828;BMP180;11580;52.562;13.418;2023-03-12T04:46:29;100137.00;;;4.20
22828;BMP180;11580;52.562;13.418;2023-03-12T04:48:56;100135.00;;;4.20
22828;BMP180;11580;52.562;13.418;2023-03-12T04:51:27;100146.00;;;4.10
22828;BMP180;11580;52.562;13.418;2023-03-12T04:53:55;100142.00;;;4.10
22828;BMP180;11580;52.562;13.418;2023-03-12T04:56:24;100147.00;;;4.10
22828;BMP180;11580;52.562;13.418;2023-03-12T04:58:54;100152.00;;;4.10
22828;BMP180;11580;52.562;13.418;2023-03-12T05:01:25;100156.00;;;4.10
22828;BMP180;11580;52.562;13.418;2023-03-12T05:03:53;100156.00;;;4.00
22828;BMP180;11580;52.562;13.418;2023-03-12T05:06:22;100158.00;;;4.10
22828;BMP180;11580;52.562;13.418;2023-03-12T05:08:50;100157.00;;;4.10
22828;BMP180;11580;52.562;13.418;2023-03-12T05:11:18;100139.00;;;4.10
22828;BMP180;11580;52.562;13.418;2023-03-12T05:13:48;100163.00;;;4.10
22828;BMP180;11580;52.562;13.418;2023-03-12T05:16:16;100161.00;;;4.10
22828;BMP180;11580;52.562;13.418;2023-03-12T05:18:44;100159.00;;;4.10
22828;BMP180;11580;52.562;13.418;2023-03-12T05:21:15;100160.00;;;4.10
22828;BMP180;11580;52.562;13.418;2023-03-12T05:23:44;100165.00;;;4.10
22828;BMP180;11580;52.562;13.418;2023-03-12T05:26:17;100169.00;;;4.10
22828;BMP180;11580;52.562;13.418;2023-03-12T05:28:46;100162.00;;;4.10
22828;BMP180;11580;52.562;13.418;2023-03-12T05:31:16;100158.00;;;4.10
22828;BMP180;11580;52.562;13.418;2023-03-12T05:33:45;100129.00;;;4.10
22828;BMP180;11580;52.562;13.418;2023-03-12T05:36:13;100151.00;;;4.10
22828;BMP180;11580;52.562;13.418;2023-03-12T05:38:42;100158.00;;;4.10
22828;BMP180;11580;52.562;13.418;2023-03-12T05:41:18;100159.00;;;4.20
22828;BMP180;11580;52.562;13.418;2023-03-12T05:43:48;100159.00;;;4.20
22828;BMP180;11580;52.562;13.418;2023-03-12T05:46:16;100158.00;;;4.20
22828;BMP180;11580;52.562;13.418;2023-03-12T05:48:44;100157.00;;;4.20
22828;BMP180;11580;52.562;13.418;2023-03-12T05:51:11;100162.00;;;4.20
22828;BMP180;11580;52.562;13.418;2023-03-12T05:53:39;100163.00;;;4.30
22828;BMP180;11580;52.562;13.418;2023-03-12T05:56:10;100161.00;;;4.30
22828;BMP180;11580;52.562;13.418;2023-03-12T05:58:38;100151.00;;;4.30
22828;BMP180;11580;52.562;13.418;2023-03-12T06:01:14;100169.00;;;4.30
22828;BMP180;11580;52.562;13.418;2023-03-12T06:03:43;100170.00;;;4.30
22828;BMP180;11580;52.562;13.418;2023-03-12T06:06:11;100168.00;;;4.40
22828;BMP180;11580;52.562;13.418;2023-03-12T06:08:41;100180.00;;;4.40
22828;BMP180;11580;52.562;13.418;2023-03-12T06:11:10;100180.00;;;4.40
22828;BMP180;11580;52.562;13.418;2023-03-12T06:13:38;100169.00;;;4.50
22828;BMP180;11580;52.562;13.418;2023-03-12T06:16:11;100162.00;;;4.50
22828;BMP180;11580;52.562;13.418;2023-03-12T06:18:41;100161.00;;;4.50
22828;BMP180;11580;52.562;13.418;2023-03-12T06:21:12;100166.00;;;4.60
22828;BMP180;11580;52.562;13.418;2023-03-12T06:23:41;100167.00;;;4.60
22828;BMP180;11580;52.562;13.418;2023-03-12T06:26:12;100176.00;;;4.70
22828;BMP180;11580;52.562;13.418;2023-03-12T06:28:40;100175.00;;;4.70
22828;BMP180;11580;52.562;13.418;2023-03-12T06:31:08;100178.00;;;4.70
22828;BMP180;11580;52.562;13.418;2023-03-12T06:33:37;100176.00;;;4.80
22828;BMP180;11580;52.562;13.418;2023-03-12T06:36:07;100154.00;;;4.80
22828;BMP180;11580;52.562;13.418;2023-03-12T06:38:35;100183.00;;;4.90
22828;BMP180;11580;52.562;13.418;2023-03-12T06:41:05;100178.00;;;4.90
22828;BMP180;11580;52.562;13.418;2023-03-12T06:43:34;100189.00;;;4.90
22828;BMP180;11580;52.562;13.418;2023-03-12T06:46:03;100188.00;;;5.00
22828;BMP180;11580;52.562;13.418;2023-03-12T06:48:32;100190.00;;;5.10
22828;BMP180;11580;52.562;13.418;2023-03-12T06:51:04;100193.00;;;5.10
22828;BMP180;11580;52.562;13.418;2023-03-12T06:53:31;100188.00;;;5.10
22828;BMP180;11580;52.562;13.418;2023-03-12T06:55:59;100202.00;;;5.20
22828;BMP180;11580;52.562;13.418;2023-03-12T06:58:26;100200.00;;;5.30
22828;BMP180;11580;52.562;13.418;2023-03-12T07:00:54;100205.00;;;5.30
22828;BMP180;11580;52.562;13.418;2023-03-12T07:03:21;100205.00;;;5.40
22828;BMP180;11580;52.562;13.418;2023-03-12T07:05:50;100203.00;;;5.40
22828;BMP180;11580;52.562;13.418;2023-03-12T07:08:18;100199.00;;;5.60
22828;BMP180;11580;52.562;13.418;2023-03-12T07:10:45;100203.00;;;5.70
22828;BMP180;11580;52.562;13.418;2023-03-12T07:13:13;100205.00;;;5.80
22828;BMP180;11580;52.562;13.418;2023-03-12T07:15:41;100203.00;;;5.90
22828;BMP180;11580;52.562;13.418;2023-03-12T07:18:10;100200.00;;;6.10
22828;BMP180;11580;52.562;13.418;2023-03-12T07:20:41;100189.00;;;6.20
22828;BMP180;11580;52.562;13.418;2023-03-12T07:23:09;100210.00;;;6.40
22828;BMP180;11580;52.562;13.418;2023-03-12T07:25:40;100218.00;;;6.50
22828;BMP180;11580;52.562;13.418;2023-03-12T07:28:09;100223.00;;;6.70
22828;BMP180;11580;52.562;13.418;2023-03-12T07:30:37;100225.00;;;6.80
22828;BMP180;11580;52.562;13.418;2023-03-12T07:33:07;100221.00;;;6.90
22828;BMP180;11580;52.562;13.418;2023-03-12T07:35:35;100228.00;;;7.00
22828;BMP180;11580;52.562;13.418;2023-03-12T07:38:04;100233.00;;;7.10
22828;BMP180;11580;52.562;13.418;2023-03-12T07:40:31;100233.00;;;7.20
22828;BMP180;11580;52.562;13.418;2023-03-12T07:43:02;100236.00;;;7.20
22828;BMP180;11580;52.562;13.418;2023-03-12T07:45:31;100236.00;;;7.30
22828;BMP180;11580;52.562;13.418;2023-03-12T07:47:59;100238.00;;;7.30
22828;BMP180;11580;52.562;13.418;2023-03-12T07:50:26;100247.00;;;7.40
22828;BMP180;11580;52.562;13.418;2023-03-12T07:52:53;100243.00;;;7.40
22828;BMP180;11580;52.562;13.418;2023-03-12T07:55:20;100239.00;;;7.40
22828;BMP180;11580;52.562;13.418;2023-03-12T07:57:48;100248.00;;;7.40
22828;BMP180;11580;52.562;13.418;2023-03-12T08:00:17;100249.00;;;7.40
22828;BMP180;11580;52.562;13.418;2023-03-12T08:02:44;100249.00;;;7.50
22828;BMP180;11580;52.562;13.418;2023-03-12T08:05:11;100253.00;;;7.50
22828;BMP180;11580;52.562;13.418;2023-03-12T08:07:38;100252.00;;;7.50
22828;BMP180;11580;52.562;13.418;2023-03-12T08:10:08;100252.00;;;7.60
22828;BMP180;11580;52.562;13.418;2023-03-12T08:12:36;100253.00;;;7.70
22828;BMP180;11580;52.562;13.418;2023-03-12T08:15:04;100250.00;;;7.80
22828;BMP180;11580;52.562;13.418;2023-03-12T08:17:34;100254.00;;;7.90
22828;BMP180;11580;52.562;13.418;2023-03-12T08:20:01;100256.00;;;7.90
22828;BMP180;11580;52.562;13.418;2023-03-12T08:22:30;100254.00;;;8.00
22828;BMP180;11580;52.562;13.418;2023-03-12T08:24:57;100259.00;;;8.10
22828;BMP180;11580;52.562;13.418;2023-03-12T08:27:25;100257.00;;;8.20
22828;BMP180;11580;52.562;13.418;2023-03-12T08:29:52;100258.00;;;8.30
22828;BMP180;11580;52.562;13.418;2023-03-12T08:32:19;100258.00;;;8.40
22828;BMP180;11580;52.562;13.418;2023-03-12T08:34:48;100252.00;;;8.40
22828;BMP180;11580;52.562;13.418;2023-03-12T08:37:15;100262.00;;;8.50
22828;BMP180;11580;52.562;13.418;2023-03-12T08:39:42;100258.00;;;8.60
22828;BMP180;11580;52.562;13.418;2023-03-12T08:42:09;100269.00;;;8.70
22828;BMP180;11580;52.562;13.418;2023-03-12T08:44:37;100261.00;;;8.80
22828;BMP180;11580;52.562;13.418;2023-03-12T08:47:04;100261.00;;;8.90
22828;BMP180;11580;52.562;13.418;2023-03-12T08:49:31;100258.00;;;9.10
22828;BMP180;11580;52.562;13.418;2023-03-12T08:52:00;100264.00;;;9.20
22828;BMP180;11580;52.562;13.418;2023-03-12T08:54:27;100259.00;;;9.30
22828;BMP180;11580;52.562;13.418;2023-03-12T08:56:54;100259.00;;;9.40
22828;BMP180;11580;52.562;13.418;2023-03-12T08:59:21;100266.00;;;9.50
22828;BMP180;11580;52.562;13.418;2023-03-12T09:01:49;100260.00;;;9.60
22828;BMP180;11580;52.562;13.418;2023-03-12T09:04:16;100263.00;;;9.70
22828;BMP180;11580;52.562;13.418;2023-03-12T09:06:44;100268.00;;;9.70
22828;BMP180;11580;52.562;13.418;2023-03-12T09:09:13;100270.00;;;9.80
22828;BMP180;11580;52.562;13.418;2023-03-12T09:11:40;100271.00;;;9.90
22828;BMP180;11580;52.562;13.418;2023-03-12T09:14:07;100273.00;;;10.00
22828;BMP180;11580;52.562;13.418;2023-03-12T09:16:35;100263.00;;;10.10
22828;BMP180;11580;52.562;13.418;2023-03-12T09:19:02;100246.00;;;10.30
22828;BMP180;11580;52.562;13.418;2023-03-12T09:21:30;100259.00;;;10.40
22828;BMP180;11580;52.562;13.418;2023-03-12T09:23:57;100258.00;;;10.50
22828;BMP180;11580;52.562;13.418;2023-03-12T09:26:26;100255.00;;;10.70
22828;BMP180;11580;52.562;13.418;2023-03-12T09:28:53;100260.00;;;10.90
22828;BMP180;11580;52.562;13.418;2023-03-12T09:31:21;100256.00;;;11.10
22828;BMP180;11580;52.562;13.418;2023-03-12T09:33:48;100250.00;;;11.30
22828;BMP180;11580;52.562;13.418;2023-03-12T09:36:15;100265.00;;;11.50
22828;BMP180;11580;52.562;13.418;2023-03-12T09:57:30;100273.00;;;12.90
22828;BMP180;11580;52.562;13.418;2023-03-12T09:59:58;100264.00;;;13.00
22828;BMP180;11580;52.562;13.418;2023-03-12T10:02:44;100261.00;;;13.30
22828;BMP180;11580;52.562;13.418;2023-03-12T10:16:20;100259.00;;;14.00
22828;BMP180;11580;52.562;13.418;2023-03-12T10:19:13;100254.00;;;14.10
22828;BMP180;11580;52.562;13.418;2023-03-12T10:21:49;100249.00;;;14.30
22828;BMP180;11580;52.562;13.418;2023-03-12T10:24:29;100256.00;;;14.40
22828;BMP180;11580;52.562;13.418;2023-03-12T10:26:59;100247.00;;;14.50
22828;BMP180;11580;52.562;13.418;2023-03-12T10:29:32;100254.00;;;14.60
22828;BMP180;11580;52.562;13.418;2023-03-12T10:32:06;100240.00;;;14.60
22828;BMP180;11580;52.562;13.418;2023-03-12T10:34:41;100237.00;;;14.60
22828;BMP180;11580;52.562;13.418;2023-03-12T10:37:17;100242.00;;;14.60
22828;BMP180;11580;52.562;13.418;2023-03-12T10:39:47;100230.00;;;14.60
22828;BMP180;11580;52.562;13.418;2023-03-12T10:42:17;100232.00;;;14.50
22828;BMP180;11580;52.562;13.418;2023-03-12T10:44:50;100235.00;;;14.50
22828;BMP180;11580;52.562;13.418;2023-03-12T10:47:33;100228.00;;;14.50
22828;BMP180;11580;52.562;13.418;2023-03-12T10:50:14;100227.00;;;14.60
22828;BMP180;11580;52.562;13.418;2023-03-12T10:52:43;100222.00;;;14.60
22828;BMP180;11580;52.562;13.418;2023-03-12T10:55:19;100209.00;;;14.60
22828;BMP180;11580;52.562;13.418;2023-03-12T10:57:47;100216.00;;;14.60
22828;BMP180;11580;52.562;13.418;2023-03-12T11:00:20;100209.00;;;14.60
22828;BMP180;11580;52.562;13.418;2023-03-12T11:02:59;100219.00;;;14.70
22828;BMP180;11580;52.562;13.418;2023-03-12T11:05:30;100216.00;;;14.80
22828;BMP180;11580;52.562;13.418;2023-03-12T11:08:00;100203.00;;;14.80
22828;BMP180;11580;52.562;13.418;2023-03-12T11:10:41;100200.00;;;14.90
22828;BMP180;11580;52.562;13.418;2023-03-12T11:13:28;100205.00;;;15.00
22828;BMP180;11580;52.562;13.418;2023-03-12T11:15:57;100198.00;;;15.00
22828;BMP180;11580;52.562;13.418;2023-03-12T11:18:33;100200.00;;;15.10
22828;BMP180;11580;52.562;13.418;2023-03-12T11:21:18;100193.00;;;15.10
22828;BMP180;11580;52.562;13.418;2023-03-12T11:24:08;100195.00;;;15.10
22828;BMP180;11580;52.562;13.418;2023-03-12T11:26:48;100187.00;;;15.20
22828;BMP180;11580;52.562;13.418;2023-03-12T11:29:24;100190.00;;;15.20
22828;BMP180;11580;52.562;13.418;2023-03-12T11:32:04;100184.00;;;15.20
22828;BMP180;11580;52.562;13.418;2023-03-12T11:34:37;100177.00;;;15.20
22828;BMP180;11580;52.562;13.418;2023-03-12T11:37:11;100179.00;;;15.20
22828;BMP180;11580;52.562;13.418;2023-03-12T11:40:15;100169.00;;;15.20
22828;BMP180;11580;52.562;13.418;2023-03-12T11:43:01;100165.00;;;15.20
22828;BMP180;11580;52.562;13.418;2023-03-12T11:45:46;100178.00;;;15.30
22828;BMP180;11580;52.562;13.418;2023-03-12T11:48:24;100181.00;;;15.40
22828;BMP180;11580;52.562;13.418;2023-03-12T11:51:12;100168.00;;;15.50
22828;BMP180;11580;52.562;13.418;2023-03-12T11:54:10;100164.00;;;15.50
22828;BMP180;11580;52.562;13.418;2023-03-12T11:56:48;100138.00;;;15.50
22828;BMP180;11580;52.562;13.418;2023-03-12T11:59:45;100162.00;;;15.50
22828;BMP180;11580;52.562;13.418;2023-03-12T12:03:03;100166.00;;;15.60
22828;BMP180;11580;52.562;13.418;2023-03-12T12:05:46;100168.00;;;15.60
22828;BMP180;11580;52.562;13.418;2023-03-12T12:08:38;100155.00;;;15.60
22828;BMP180;11580;52.562;13.418;2023-03-12T12:11:16;100144.00;;;15.60
22828;BMP180;11580;52.562;13.418;2023-03-12T12:14:01;100129.00;;;15.60
22828;BMP180;11580;52.562;13.418;2023-03-12T12:16:48;100135.00;;;15.60
22828;BMP180;11580;52.562;13.418;2023-03-12T12:19:36;100113.00;;;15.60
22828;BMP180;11580;52.562;13.418;2023-03-12T12:22:25;100127.00;;;15.60
22828;BMP180;11580;52.562;13.418;2023-03-12T12:25:37;100122.00;;;15.50
22828;BMP180;11580;52.562;13.418;2023-03-12T12:31:34;100082.00;;;15.50
22828;BMP180;11580;52.562;13.418;2023-03-12T12:34:39;100080.00;;;15.60
22828;BMP180;11580;52.562;13.418;2023-03-12T12:37:31;100102.00;;;15.70
22828;BMP180;11580;52.562;13.418;2023-03-12T12:40:17;100080.00;;;15.70
22828;BMP180;11580;52.562;13.418;2023-03-12T12:43:05;100073.00;;;15.80
22828;BMP180;11580;52.562;13.418;2023-03-12T12:45:40;100074.00;;;15.80
22828;BMP180;11580;52.562;13.418;2023-03-12T12:48:13;100070.00;;;15.80
22828;BMP180;11580;52.562;13.418;2023-03-12T12:50:45;100079.00;;;15.80
22828;BMP180;11580;52.562;13.418;2023-03-12T12:53:20;100061.00;;;15.80
22828;BMP180;11580;52.562;13.418;2023-03-12T12:56:03;100057.00;;;15.70
22828;BMP180;11580;52.562;13.418;2023-03-12T12:58:57;100046.00;;;15.70
22828;BMP180;11580;52.562;13.418;2023-03-12T13:01:27;100057.00;;;15.60
22828;BMP180;11580;52.562;13.418;2023-03-12T13:04:01;100057.00;;;15.50
22828;BMP180;11580;52.562;13.418;2023-03-12T13:06:58;100052.00;;;15.50
22828;BMP180;11580;52.562;13.418;2023-03-12T13:09:38;100057.00;;;15.40
22828;BMP180;11580;52.562;13.418;2023-03-12T13:12:20;100049.00;;;15.40
22828;BMP180;11580;52.562;13.418;2023-03-12T13:14:52;100053.00;;;15.40
22828;BMP180;11580;52.562;13.418;2023-03-12T13:17:29;100054.00;;;15.40
22828;BMP180;11580;52.562;13.418;2023-03-12T13:20:16;100044.00;;;15.40
22828;BMP180;11580;52.562;13.418;2023-03-12T13:23:12;100046.00;;;15.30
22828;BMP180;11580;52.562;13.418;2023-03-12T13:25:57;100041.00;;;15.20
22828;BMP180;11580;52.562;13.418;2023-03-12T13:28:37;100036.00;;;15.10
22828;BMP180;11580;52.562;13.418;2023-03-12T13:31:36;100029.00;;;15.00
22828;BMP180;11580;52.562;13.418;2023-03-12T13:34:46;100029.00;;;14.90
22828;BMP180;11580;52.562;13.418;2023-03-12T13:37:59;100035.00;;;14.80
22828;BMP180;11580;52.562;13.418;2023-03-12T13:40:53;100027.00;;;14.70
22828;BMP180;11580;52.562;13.418;2023-03-12T13:43:55;100025.00;;;14.70
22828;BMP180;11580;52.562;13.418;2023-03-12T13:46:41;100027.00;;;14.70
22828;BMP180;11580;52.562;13.418;2023-03-12T13:49:14;100009.00;;;14.60
22828;BMP180;11580;52.562;13.418;2023-03-12T13:52:09;99993.00;;;14.60
22828;BMP180;11580;52.562;13.418;2023-03-12T13:54:42;99998.00;;;14.60
22828;BMP180;11580;52.562;13.418;2023-03-12T13:57:23;100008.00;;;14.60
22828;BMP180;11580;52.562;13.418;2023-03-12T13:59:52;100009.00;;;14.60
22828;BMP180;11580;52.562;13.418;2023-03-12T14:02:26;100007.00;;;14.50
22828;BMP180;11580;52.562;13.418;2023-03-12T14:05:02;100002.00;;;14.50
22828;BMP180;11580;52.562;13.418;2023-03-12T14:08:13;100001.00;;;14.40
22828;BMP180;11580;52.562;13.418;2023-03-12T14:10:54;99995.00;;;14.40
22828;BMP180;11580;52.562;13.418;2023-03-12T14:13:46;100004.00;;;14.30
22828;BMP180;11580;52.562;13.418;2023-03-12T14:16:24;100006.00;;;14.30
22828;BMP180;11580;52.562;13.418;2023-03-12T14:18:53;100003.00;;;14.20
22828;BMP180;11580;52.562;13.418;2023-03-12T14:21:22;99991.00;;;14.10
22828;BMP180;11580;52.562;13.418;2023-03-12T14:23:54;99991.00;;;14.10
22828;BMP180;11580;52.562;13.418;2023-03-12T14:26:26;99980.00;;;14.00
22828;BMP180;11580;52.562;13.418;2023-03-12T14:29:00;99975.00;;;13.90
22828;BMP180;11580;52.562;13.418;2023-03-12T14:31:30;99982.00;;;13.90
22828;BMP180;11580;52.562;13.418;2023-03-12T14:34:05;99984.00;;;13.80
22828;BMP180;11580;52.562;13.418;2023-03-12T14:36:40;99981.00;;;13.70
22828;BMP180;11580;52.562;13.418;2023-03-12T14:39:20;99992.00;;;13.60
22828;BMP180;11580;52.562;13.418;2023-03-12T14:41:58;100004.00;;;13.50
22828;BMP180;11580;52.562;13.418;2023-03-12T14:44:28;99986.00;;;13.40
22828;BMP180;11580;52.562;13.418;2023-03-12T14:46:59;99998.00;;;13.40
22828;BMP180;11580;52.562;13.418;2023-03-12T14:49:28;99992.00;;;13.20
22828;BMP180;11580;52.562;13.418;2023-03-12T14:51:56;99984.00;;;13.10
22828;BMP180;11580;52.562;13.418;2023-03-12T14:54:26;99980.00;;;13.00
22828;BMP180;11580;52.562;13.418;2023-03-12T14:56:53;99968.00;;;12.90